This is the latest recevied weather packets stored in our database for station/object KK7RJD. If no packets are shown the sender has not sent any weather packets the latest 1 day(s).
| Time | Temp. | Humidity | Pressure | Rain* | Wind** | Luminosity | Snow |
|---|---|---|---|---|---|---|---|
| 1778036189 | 3.33° C | 55% | 1017.9 hPa | 0 mm | - | 0 W/m² | - |
| 1778035885 | 3.89° C | 54% | 1017.8 hPa | 0 mm | - | 0 W/m² | - |
| 1778035583 | 3.89° C | 53% | 1017.7 hPa | 0 mm | - | 0 W/m² | - |
| 1778035278 | 3.89° C | 54% | 1017.6 hPa | 0 mm | - | 0 W/m² | - |
| 1778034975 | 4.44° C | 49% | 1017.5 hPa | 0 mm | - | 1 W/m² | - |
| 1778034370 | 5° C | 40% | 1017.4 hPa | 0 mm | - | 2 W/m² | - |
| 1778034067 | 5° C | 40% | 1017.1 hPa | 0 mm | - | 4 W/m² | - |
| 1778033765 | 5° C | 41% | 1017.1 hPa | 0 mm | - | 6 W/m² | - |
| 1778033159 | 5° C | 44% | 1016.7 hPa | 0 mm | - | 9 W/m² | - |
| 1778032554 | 5.56° C | 43% | 1016.7 hPa | 0 mm | - | 15 W/m² | - |
| 1778032250 | 5.56° C | 44% | 1016.8 hPa | 0 mm | - | 18 W/m² | - |
| 1778031948 | 5.56° C | 42% | 1016.6 hPa | 0 mm | - | 21 W/m² | - |
| 1778031643 | 5.56° C | 41% | 1016.5 hPa | 0 mm | - | 25 W/m² | - |
| 1778031342 | 6.11° C | 39% | 1016.5 hPa | 0 mm | - | 23 W/m² | - |
| 1778031038 | 6.11° C | 38% | 1016.2 hPa | 0 mm | - | 23 W/m² | - |
| 1778030734 | 6.67° C | 38% | 1016.2 hPa | 0 mm | - | 22 W/m² | - |
| 1778030129 | 6.11° C | 43% | 1016.2 hPa | 0 mm | - | 58 W/m² | - |
| 1778029825 | 6.67° C | 43% | 1016.1 hPa | 0 mm | - | 55 W/m² | - |
| 1778029525 | 6.67° C | 42% | 1016.1 hPa | 0 mm | - | 64 W/m² | - |
| 1778029221 | 6.67° C | 41% | 1015.8 hPa | 0 mm | - | 85 W/m² | - |
| 1778028918 | 7.22° C | 41% | 1015.7 hPa | 0 mm | - | 152 W/m² | - |
| 1778028008 | 6.67° C | 42% | 1015.7 hPa | 0 mm | - | 187 W/m² | - |
| 1778027704 | 7.22° C | 41% | 1015.8 hPa | 0 mm | - | 181 W/m² | - |
| 1778027400 | 7.22° C | 41% | 1015.7 hPa | 0 mm | - | 200 W/m² | - |
| 1778027096 | 7.22° C | 42% | 1015.6 hPa | 0 mm | - | 231 W/m² | - |
* Rain latest hour (hover to see other rain measurements)
** Current wind speed in m/s (hover to see current wind gust speed)